Kezdőlap
METAR-TAF:

METAR-TAF

Repülőterek :

Nebraska City Municipal Airport

Nebraska City, Nebraska, Amerikai Egyesült Államok

földrajzi szélesség: 40-36N, földrajzi hosszúság: 095-51W, magasság: 354 m

Jelenlegi meteorológiai megfigyelések

A jelentés 29 perccel ezelõtt készült, 15:15 UTC
Észak-északkeleti szél 12 kt széllökések: 15 kt
Hőmérséklet -4°C
Páratartalom 93%
Légköri nyomás 1030 hPa
Látótávolság: 16.1 km
Derült ég

METAR: KAFK 061515Z AUTO 02012G15KT 10SM CLR M04/M05 A3041 RMK AO2 T10361055

Idő: 09:44 (15:44 UTC)


TAF: hiányzik

Meteorológiai megfigyelések és előrejelzések több, mint 4000 repülőtéren (METAR és TAF jelentéseket).

A térképen piros és sárga pontok jelzik az elérhető meteorológiai állomásokat.

Mozgassa az egeret a pont fölött, hogy megjelenjen az állomás neve.

Azután kattintson az időjárási megfigyelések és előrejelzések megtekintéséhez.

A térkép megváltoztatása: kattintson a fekete keresztel jelölt zöld gombra ráközelítéshez, a vonallal jelölt zöld gombra távolításhoz, vagy a zöld nyilakra a szomszédos térképek eléréséhez.


METAR-TAF: